sensor_id;sensor_type;location;lat;lon;timestamp;P1;durP1;ratioP1;P2;durP2;ratioP2
11453;SDS011;5783;55.174;61.310;2023-08-08T00:00:03;16.70;;;10.60;;
11453;SDS011;5783;55.174;61.310;2023-08-08T00:02:34;12.95;;;10.40;;
11453;SDS011;5783;55.174;61.310;2023-08-08T00:05:03;13.50;;;9.80;;
11453;SDS011;5783;55.174;61.310;2023-08-08T00:07:33;13.40;;;9.87;;
11453;SDS011;5783;55.174;61.310;2023-08-08T00:10:02;13.30;;;9.63;;
11453;SDS011;5783;55.174;61.310;2023-08-08T00:12:32;14.57;;;9.87;;
11453;SDS011;5783;55.174;61.310;2023-08-08T00:15:01;18.60;;;10.60;;
11453;SDS011;5783;55.174;61.310;2023-08-08T00:17:31;18.60;;;10.80;;
11453;SDS011;5783;55.174;61.310;2023-08-08T00:22:30;17.30;;;11.00;;
11453;SDS011;5783;55.174;61.310;2023-08-08T00:24:59;18.10;;;11.25;;
11453;SDS011;5783;55.174;61.310;2023-08-08T00:27:30;18.17;;;11.57;;
11453;SDS011;5783;55.174;61.310;2023-08-08T00:30:00;17.10;;;11.70;;
11453;SDS011;5783;55.174;61.310;2023-08-08T00:32:31;17.10;;;11.37;;
11453;SDS011;5783;55.174;61.310;2023-08-08T00:35:00;18.10;;;12.30;;
11453;SDS011;5783;55.174;61.310;2023-08-08T00:37:31;18.40;;;12.00;;
11453;SDS011;5783;55.174;61.310;2023-08-08T00:40:00;17.20;;;11.90;;
11453;SDS011;5783;55.174;61.310;2023-08-08T00:42:30;19.90;;;12.23;;
11453;SDS011;5783;55.174;61.310;2023-08-08T00:45:19;17.93;;;11.40;;
11453;SDS011;5783;55.174;61.310;2023-08-08T00:47:48;17.73;;;12.30;;
11453;SDS011;5783;55.174;61.310;2023-08-08T00:50:17;16.10;;;12.50;;
11453;SDS011;5783;55.174;61.310;2023-08-08T00:52:47;17.50;;;11.93;;
11453;SDS011;5783;55.174;61.310;2023-08-08T00:55:16;18.10;;;12.57;;
11453;SDS011;5783;55.174;61.310;2023-08-08T00:57:47;15.77;;;12.07;;
11453;SDS011;5783;55.174;61.310;2023-08-08T01:00:16;19.60;;;12.70;;
11453;SDS011;5783;55.174;61.310;2023-08-08T01:02:45;18.10;;;12.80;;
11453;SDS011;5783;55.174;61.310;2023-08-08T01:05:14;17.80;;;12.60;;
11453;SDS011;5783;55.174;61.310;2023-08-08T01:13:23;15.30;;;12.33;;
11453;SDS011;5783;55.174;61.310;2023-08-08T01:15:55;15.15;;;11.80;;
11453;SDS011;5783;55.174;61.310;2023-08-08T01:18:25;15.13;;;11.73;;
11453;SDS011;5783;55.174;61.310;2023-08-08T01:20:56;15.97;;;12.67;;
11453;SDS011;5783;55.174;61.310;2023-08-08T01:26:19;18.10;;;11.70;;
11453;SDS011;5783;55.174;61.310;2023-08-08T01:28:52;16.30;;;11.40;;
11453;SDS011;5783;55.174;61.310;2023-08-08T01:31:21;16.80;;;11.90;;
11453;SDS011;5783;55.174;61.310;2023-08-08T01:33:50;14.40;;;11.50;;
11453;SDS011;5783;55.174;61.310;2023-08-08T01:36:20;17.27;;;12.10;;
11453;SDS011;5783;55.174;61.310;2023-08-08T01:38:51;16.40;;;12.10;;
11453;SDS011;5783;55.174;61.310;2023-08-08T01:41:22;16.60;;;12.23;;
11453;SDS011;5783;55.174;61.310;2023-08-08T01:43:52;16.50;;;12.33;;
11453;SDS011;5783;55.174;61.310;2023-08-08T01:46:22;16.55;;;12.50;;
11453;SDS011;5783;55.174;61.310;2023-08-08T01:48:52;18.17;;;11.77;;
11453;SDS011;5783;55.174;61.310;2023-08-08T01:51:22;15.90;;;12.47;;
11453;SDS011;5783;55.174;61.310;2023-08-08T01:53:51;15.93;;;12.83;;
11453;SDS011;5783;55.174;61.310;2023-08-08T01:56:20;18.53;;;12.40;;
11453;SDS011;5783;55.174;61.310;2023-08-08T01:58:50;18.23;;;13.13;;
11453;SDS011;5783;55.174;61.310;2023-08-08T02:01:19;21.90;;;13.67;;
11453;SDS011;5783;55.174;61.310;2023-08-08T02:03:48;19.10;;;13.53;;
11453;SDS011;5783;55.174;61.310;2023-08-08T02:06:17;18.17;;;13.57;;
11453;SDS011;5783;55.174;61.310;2023-08-08T02:08:46;19.90;;;13.33;;
11453;SDS011;5783;55.174;61.310;2023-08-08T02:11:15;18.95;;;13.45;;
11453;SDS011;5783;55.174;61.310;2023-08-08T02:13:44;22.60;;;14.70;;
11453;SDS011;5783;55.174;61.310;2023-08-08T02:16:13;20.40;;;14.30;;
11453;SDS011;5783;55.174;61.310;2023-08-08T02:18:43;22.20;;;14.20;;
11453;SDS011;5783;55.174;61.310;2023-08-08T02:21:12;19.45;;;13.60;;
11453;SDS011;5783;55.174;61.310;2023-08-08T02:23:42;18.25;;;13.65;;
11453;SDS011;5783;55.174;61.310;2023-08-08T02:26:30;19.10;;;14.00;;
11453;SDS011;5783;55.174;61.310;2023-08-08T02:29:03;20.43;;;14.57;;
11453;SDS011;5783;55.174;61.310;2023-08-08T02:31:33;18.13;;;14.37;;
11453;SDS011;5783;55.174;61.310;2023-08-08T02:34:02;23.50;;;14.77;;
11453;SDS011;5783;55.174;61.310;2023-08-08T02:36:31;19.20;;;14.10;;
11453;SDS011;5783;55.174;61.310;2023-08-08T02:39:00;18.05;;;13.35;;
11453;SDS011;5783;55.174;61.310;2023-08-08T02:41:29;17.70;;;13.40;;
11453;SDS011;5783;55.174;61.310;2023-08-08T02:43:58;16.67;;;12.97;;
11453;SDS011;5783;55.174;61.310;2023-08-08T02:46:28;18.30;;;12.90;;
11453;SDS011;5783;55.174;61.310;2023-08-08T02:48:57;15.83;;;12.47;;
11453;SDS011;5783;55.174;61.310;2023-08-08T02:51:26;16.13;;;12.13;;
11453;SDS011;5783;55.174;61.310;2023-08-08T02:53:55;15.30;;;11.80;;
11453;SDS011;5783;55.174;61.310;2023-08-08T02:56:25;14.93;;;11.67;;
11453;SDS011;5783;55.174;61.310;2023-08-08T02:58:54;13.60;;;11.00;;
11453;SDS011;5783;55.174;61.310;2023-08-08T03:01:24;12.45;;;10.80;;
11453;SDS011;5783;55.174;61.310;2023-08-08T03:03:53;11.60;;;10.30;;
11453;SDS011;5783;55.174;61.310;2023-08-08T03:06:22;14.53;;;10.03;;
11453;SDS011;5783;55.174;61.310;2023-08-08T03:08:51;11.10;;;9.30;;
11453;SDS011;5783;55.174;61.310;2023-08-08T03:11:20;11.00;;;9.40;;
11453;SDS011;5783;55.174;61.310;2023-08-08T03:16:18;10.20;;;8.40;;
11453;SDS011;5783;55.174;61.310;2023-08-08T03:18:47;10.70;;;8.27;;
11453;SDS011;5783;55.174;61.310;2023-08-08T03:21:16;9.03;;;8.13;;
11453;SDS011;5783;55.174;61.310;2023-08-08T03:23:45;10.33;;;8.47;;
11453;SDS011;5783;55.174;61.310;2023-08-08T03:26:14;8.65;;;7.60;;
11453;SDS011;5783;55.174;61.310;2023-08-08T03:28:43;8.50;;;7.70;;
11453;SDS011;5783;55.174;61.310;2023-08-08T03:31:14;7.90;;;7.10;;
11453;SDS011;5783;55.174;61.310;2023-08-08T03:34:03;9.00;;;7.20;;
11453;SDS011;5783;55.174;61.310;2023-08-08T03:36:32;8.60;;;7.40;;
11453;SDS011;5783;55.174;61.310;2023-08-08T03:39:01;7.63;;;6.83;;
11453;SDS011;5783;55.174;61.310;2023-08-08T03:41:32;8.70;;;7.05;;
11453;SDS011;5783;55.174;61.310;2023-08-08T03:44:02;7.33;;;6.53;;
11453;SDS011;5783;55.174;61.310;2023-08-08T03:46:32;7.30;;;6.23;;
11453;SDS011;5783;55.174;61.310;2023-08-08T03:49:01;7.05;;;6.35;;
11453;SDS011;5783;55.174;61.310;2023-08-08T03:51:30;6.90;;;6.20;;
11453;SDS011;5783;55.174;61.310;2023-08-08T03:53:59;6.70;;;6.00;;
11453;SDS011;5783;55.174;61.310;2023-08-08T03:56:29;7.10;;;6.40;;
11453;SDS011;5783;55.174;61.310;2023-08-08T03:58:58;6.40;;;5.80;;
11453;SDS011;5783;55.174;61.310;2023-08-08T04:01:27;6.80;;;6.20;;
11453;SDS011;5783;55.174;61.310;2023-08-08T04:03:56;6.90;;;6.20;;
11453;SDS011;5783;55.174;61.310;2023-08-08T04:06:25;6.60;;;5.90;;
11453;SDS011;5783;55.174;61.310;2023-08-08T04:08:54;7.80;;;6.20;;
11453;SDS011;5783;55.174;61.310;2023-08-08T04:11:23;5.87;;;5.20;;
11453;SDS011;5783;55.174;61.310;2023-08-08T04:13:53;6.37;;;5.77;;
11453;SDS011;5783;55.174;61.310;2023-08-08T04:16:22;6.00;;;5.43;;
11453;SDS011;5783;55.174;61.310;2023-08-08T04:18:51;6.40;;;5.80;;
11453;SDS011;5783;55.174;61.310;2023-08-08T04:21:20;6.20;;;5.60;;
11453;SDS011;5783;55.174;61.310;2023-08-08T04:23:51;6.23;;;5.63;;
11453;SDS011;5783;55.174;61.310;2023-08-08T04:26:20;5.53;;;5.03;;
11453;SDS011;5783;55.174;61.310;2023-08-08T04:28:49;7.77;;;5.90;;
11453;SDS011;5783;55.174;61.310;2023-08-08T04:31:18;7.33;;;5.80;;
11453;SDS011;5783;55.174;61.310;2023-08-08T04:33:49;6.30;;;5.53;;
11453;SDS011;5783;55.174;61.310;2023-08-08T04:36:20;6.50;;;5.90;;
11453;SDS011;5783;55.174;61.310;2023-08-08T04:38:49;6.03;;;5.33;;
11453;SDS011;5783;55.174;61.310;2023-08-08T04:41:18;8.10;;;6.03;;
11453;SDS011;5783;55.174;61.310;2023-08-08T04:43:47;7.30;;;6.50;;
11453;SDS011;5783;55.174;61.310;2023-08-08T04:46:16;7.53;;;6.33;;
11453;SDS011;5783;55.174;61.310;2023-08-08T04:48:45;7.67;;;6.80;;
11453;SDS011;5783;55.174;61.310;2023-08-08T04:51:14;7.17;;;6.47;;
11453;SDS011;5783;55.174;61.310;2023-08-08T04:53:44;8.07;;;6.50;;
11453;SDS011;5783;55.174;61.310;2023-08-08T04:56:13;8.83;;;6.63;;
11453;SDS011;5783;55.174;61.310;2023-08-08T04:58:42;8.17;;;6.37;;
11453;SDS011;5783;55.174;61.310;2023-08-08T05:01:12;8.30;;;6.47;;
11453;SDS011;5783;55.174;61.310;2023-08-08T05:03:42;9.17;;;6.90;;
11453;SDS011;5783;55.174;61.310;2023-08-08T05:06:11;11.33;;;8.20;;
11453;SDS011;5783;55.174;61.310;2023-08-08T05:08:41;10.53;;;7.70;;
11453;SDS011;5783;55.174;61.310;2023-08-08T05:11:10;10.00;;;7.73;;
11453;SDS011;5783;55.174;61.310;2023-08-08T05:13:39;9.80;;;8.20;;
11453;SDS011;5783;55.174;61.310;2023-08-08T05:16:09;12.70;;;8.63;;
11453;SDS011;5783;55.174;61.310;2023-08-08T05:18:38;14.43;;;8.40;;
11453;SDS011;5783;55.174;61.310;2023-08-08T05:21:08;14.93;;;8.10;;
11453;SDS011;5783;55.174;61.310;2023-08-08T05:23:38;11.00;;;8.53;;
11453;SDS011;5783;55.174;61.310;2023-08-08T05:26:07;11.53;;;7.97;;
11453;SDS011;5783;55.174;61.310;2023-08-08T05:28:36;10.90;;;8.00;;
11453;SDS011;5783;55.174;61.310;2023-08-08T05:31:05;14.60;;;9.40;;
11453;SDS011;5783;55.174;61.310;2023-08-08T05:33:36;12.33;;;8.50;;
11453;SDS011;5783;55.174;61.310;2023-08-08T05:36:05;10.60;;;8.67;;
11453;SDS011;5783;55.174;61.310;2023-08-08T05:38:34;12.27;;;8.10;;
11453;SDS011;5783;55.174;61.310;2023-08-08T05:41:04;11.10;;;7.97;;
11453;SDS011;5783;55.174;61.310;2023-08-08T05:43:33;9.70;;;7.70;;
11453;SDS011;5783;55.174;61.310;2023-08-08T05:46:02;12.37;;;8.30;;
11453;SDS011;5783;55.174;61.310;2023-08-08T05:48:31;8.83;;;6.80;;
11453;SDS011;5783;55.174;61.310;2023-08-08T05:51:01;10.40;;;7.50;;
11453;SDS011;5783;55.174;61.310;2023-08-08T05:53:31;11.70;;;7.80;;
11453;SDS011;5783;55.174;61.310;2023-08-08T05:56:00;10.57;;;7.97;;
11453;SDS011;5783;55.174;61.310;2023-08-08T05:58:29;10.20;;;7.83;;
11453;SDS011;5783;55.174;61.310;2023-08-08T06:00:58;10.37;;;7.90;;
11453;SDS011;5783;55.174;61.310;2023-08-08T06:03:28;9.03;;;8.10;;
11453;SDS011;5783;55.174;61.310;2023-08-08T06:05:57;9.83;;;7.37;;
11453;SDS011;5783;55.174;61.310;2023-08-08T06:08:27;8.97;;;7.67;;
11453;SDS011;5783;55.174;61.310;2023-08-08T06:10:56;8.57;;;7.07;;
11453;SDS011;5783;55.174;61.310;2023-08-08T06:13:25;10.17;;;7.43;;
11453;SDS011;5783;55.174;61.310;2023-08-08T06:15:54;11.03;;;7.00;;
11453;SDS011;5783;55.174;61.310;2023-08-08T06:18:23;10.77;;;6.60;;
11453;SDS011;5783;55.174;61.310;2023-08-08T06:20:52;8.07;;;6.07;;
11453;SDS011;5783;55.174;61.310;2023-08-08T06:23:22;7.10;;;5.70;;
11453;SDS011;5783;55.174;61.310;2023-08-08T06:25:51;8.27;;;5.20;;
11453;SDS011;5783;55.174;61.310;2023-08-08T06:28:20;7.13;;;5.07;;
11453;SDS011;5783;55.174;61.310;2023-08-08T06:30:49;8.27;;;4.73;;
11453;SDS011;5783;55.174;61.310;2023-08-08T06:33:18;6.30;;;4.40;;
11453;SDS011;5783;55.174;61.310;2023-08-08T06:35:47;6.07;;;3.90;;
11453;SDS011;5783;55.174;61.310;2023-08-08T06:38:17;9.53;;;4.37;;
11453;SDS011;5783;55.174;61.310;2023-08-08T06:40:47;4.53;;;3.50;;
11453;SDS011;5783;55.174;61.310;2023-08-08T06:43:17;4.83;;;3.40;;
11453;SDS011;5783;55.174;61.310;2023-08-08T06:45:46;4.53;;;3.10;;
11453;SDS011;5783;55.174;61.310;2023-08-08T06:48:16;3.50;;;2.70;;
11453;SDS011;5783;55.174;61.310;2023-08-08T06:50:45;4.37;;;3.00;;
11453;SDS011;5783;55.174;61.310;2023-08-08T06:53:14;5.33;;;2.97;;
11453;SDS011;5783;55.174;61.310;2023-08-08T06:55:43;4.27;;;2.70;;
11453;SDS011;5783;55.174;61.310;2023-08-08T06:58:13;4.90;;;3.10;;
11453;SDS011;5783;55.174;61.310;2023-08-08T07:00:42;4.17;;;2.90;;
11453;SDS011;5783;55.174;61.310;2023-08-08T07:03:11;3.03;;;2.70;;
11453;SDS011;5783;55.174;61.310;2023-08-08T07:05:40;5.57;;;2.93;;
11453;SDS011;5783;55.174;61.310;2023-08-08T07:08:09;3.40;;;3.10;;
11453;SDS011;5783;55.174;61.310;2023-08-08T07:10:38;3.83;;;3.23;;
11453;SDS011;5783;55.174;61.310;2023-08-08T07:13:08;3.87;;;3.30;;
11453;SDS011;5783;55.174;61.310;2023-08-08T07:15:37;3.97;;;3.23;;
11453;SDS011;5783;55.174;61.310;2023-08-08T07:18:06;4.20;;;3.20;;
11453;SDS011;5783;55.174;61.310;2023-08-08T07:20:36;4.03;;;3.20;;
11453;SDS011;5783;55.174;61.310;2023-08-08T07:23:05;4.40;;;3.40;;
11453;SDS011;5783;55.174;61.310;2023-08-08T07:25:34;4.03;;;3.60;;
11453;SDS011;5783;55.174;61.310;2023-08-08T07:28:04;4.57;;;3.40;;
11453;SDS011;5783;55.174;61.310;2023-08-08T07:30:33;4.53;;;3.60;;
11453;SDS011;5783;55.174;61.310;2023-08-08T07:33:02;4.77;;;3.80;;
11453;SDS011;5783;55.174;61.310;2023-08-08T07:35:33;4.47;;;3.80;;
11453;SDS011;5783;55.174;61.310;2023-08-08T07:38:03;4.33;;;3.93;;
11453;SDS011;5783;55.174;61.310;2023-08-08T07:40:32;4.80;;;3.87;;
11453;SDS011;5783;55.174;61.310;2023-08-08T07:43:01;6.37;;;4.03;;
11453;SDS011;5783;55.174;61.310;2023-08-08T07:45:31;5.67;;;3.97;;
11453;SDS011;5783;55.174;61.310;2023-08-08T07:48:01;5.27;;;3.77;;
11453;SDS011;5783;55.174;61.310;2023-08-08T07:50:30;4.47;;;3.73;;
11453;SDS011;5783;55.174;61.310;2023-08-08T07:53:00;5.77;;;3.90;;
11453;SDS011;5783;55.174;61.310;2023-08-08T07:55:29;5.57;;;3.83;;
11453;SDS011;5783;55.174;61.310;2023-08-08T07:57:58;8.27;;;4.30;;
11453;SDS011;5783;55.174;61.310;2023-08-08T08:00:27;4.60;;;4.07;;
11453;SDS011;5783;55.174;61.310;2023-08-08T08:02:56;5.83;;;4.17;;
11453;SDS011;5783;55.174;61.310;2023-08-08T08:05:26;5.87;;;4.03;;
11453;SDS011;5783;55.174;61.310;2023-08-08T08:07:55;4.90;;;4.17;;
11453;SDS011;5783;55.174;61.310;2023-08-08T08:10:24;5.13;;;4.13;;
11453;SDS011;5783;55.174;61.310;2023-08-08T08:12:53;6.63;;;4.60;;
11453;SDS011;5783;55.174;61.310;2023-08-08T08:15:24;9.33;;;5.43;;
11453;SDS011;5783;55.174;61.310;2023-08-08T08:17:54;12.00;;;5.57;;
11453;SDS011;5783;55.174;61.310;2023-08-08T08:20:23;9.73;;;5.90;;
11453;SDS011;5783;55.174;61.310;2023-08-08T08:22:52;10.20;;;5.40;;
11453;SDS011;5783;55.174;61.310;2023-08-08T08:25:22;7.50;;;5.10;;
11453;SDS011;5783;55.174;61.310;2023-08-08T08:27:51;7.17;;;5.13;;
11453;SDS011;5783;55.174;61.310;2023-08-08T08:30:20;8.03;;;5.53;;
11453;SDS011;5783;55.174;61.310;2023-08-08T08:32:51;9.07;;;5.83;;
11453;SDS011;5783;55.174;61.310;2023-08-08T08:35:22;12.07;;;6.50;;
11453;SDS011;5783;55.174;61.310;2023-08-08T08:37:52;14.37;;;7.67;;
11453;SDS011;5783;55.174;61.310;2023-08-08T08:40:21;14.00;;;9.00;;
11453;SDS011;5783;55.174;61.310;2023-08-08T08:42:52;22.00;;;11.87;;
11453;SDS011;5783;55.174;61.310;2023-08-08T08:45:22;24.30;;;13.77;;
11453;SDS011;5783;55.174;61.310;2023-08-08T08:47:51;30.67;;;13.77;;
11453;SDS011;5783;55.174;61.310;2023-08-08T08:50:43;22.20;;;12.10;;
11453;SDS011;5783;55.174;61.310;2023-08-08T08:53:15;17.20;;;9.07;;
11453;SDS011;5783;55.174;61.310;2023-08-08T08:55:45;11.97;;;7.57;;
11453;SDS011;5783;55.174;61.310;2023-08-08T08:58:15;11.57;;;7.27;;
11453;SDS011;5783;55.174;61.310;2023-08-08T09:00:44;13.13;;;7.30;;
11453;SDS011;5783;55.174;61.310;2023-08-08T09:03:16;10.07;;;5.93;;
11453;SDS011;5783;55.174;61.310;2023-08-08T09:05:45;8.00;;;5.40;;
11453;SDS011;5783;55.174;61.310;2023-08-08T09:08:15;7.30;;;5.20;;
11453;SDS011;5783;55.174;61.310;2023-08-08T09:10:45;6.47;;;5.00;;
11453;SDS011;5783;55.174;61.310;2023-08-08T09:13:16;5.03;;;4.33;;
11453;SDS011;5783;55.174;61.310;2023-08-08T09:15:46;5.77;;;4.60;;
11453;SDS011;5783;55.174;61.310;2023-08-08T09:18:16;4.43;;;4.00;;
11453;SDS011;5783;55.174;61.310;2023-08-08T09:23:34;7.83;;;4.03;;
11453;SDS011;5783;55.174;61.310;2023-08-08T09:26:05;6.23;;;4.30;;
11453;SDS011;5783;55.174;61.310;2023-08-08T09:28:35;6.93;;;4.60;;
11453;SDS011;5783;55.174;61.310;2023-08-08T09:31:04;7.53;;;4.30;;
11453;SDS011;5783;55.174;61.310;2023-08-08T09:33:33;5.73;;;4.20;;
11453;SDS011;5783;55.174;61.310;2023-08-08T09:36:03;5.70;;;4.77;;
11453;SDS011;5783;55.174;61.310;2023-08-08T09:38:32;8.73;;;5.80;;
11453;SDS011;5783;55.174;61.310;2023-08-08T09:41:01;14.67;;;8.47;;
11453;SDS011;5783;55.174;61.310;2023-08-08T09:43:30;12.20;;;8.10;;
11453;SDS011;5783;55.174;61.310;2023-08-08T09:46:00;17.43;;;8.43;;
11453;SDS011;5783;55.174;61.310;2023-08-08T09:48:30;17.10;;;8.33;;
11453;SDS011;5783;55.174;61.310;2023-08-08T09:51:01;13.50;;;7.93;;
11453;SDS011;5783;55.174;61.310;2023-08-08T09:53:30;13.43;;;8.00;;
11453;SDS011;5783;55.174;61.310;2023-08-08T09:56:02;15.27;;;8.23;;
11453;SDS011;5783;55.174;61.310;2023-08-08T09:58:31;10.80;;;7.27;;
11453;SDS011;5783;55.174;61.310;2023-08-08T10:01:01;13.50;;;7.43;;
11453;SDS011;5783;55.174;61.310;2023-08-08T10:03:31;13.30;;;7.20;;
11453;SDS011;5783;55.174;61.310;2023-08-08T10:06:02;16.57;;;7.33;;
11453;SDS011;5783;55.174;61.310;2023-08-08T10:08:31;14.43;;;7.17;;
11453;SDS011;5783;55.174;61.310;2023-08-08T10:11:01;8.77;;;6.77;;
11453;SDS011;5783;55.174;61.310;2023-08-08T10:13:31;9.73;;;6.30;;
11453;SDS011;5783;55.174;61.310;2023-08-08T10:16:03;6.37;;;5.67;;
11453;SDS011;5783;55.174;61.310;2023-08-08T10:30:09;6.00;;;4.20;;
11453;SDS011;5783;55.174;61.310;2023-08-08T10:38:40;4.27;;;3.67;;
11453;SDS011;5783;55.174;61.310;2023-08-08T10:41:29;8.57;;;4.50;;
11453;SDS011;5783;55.174;61.310;2023-08-08T10:43:58;6.90;;;4.50;;
11453;SDS011;5783;55.174;61.310;2023-08-08T10:46:29;9.03;;;5.07;;
11453;SDS011;5783;55.174;61.310;2023-08-08T10:49:19;8.07;;;4.80;;
11453;SDS011;5783;55.174;61.310;2023-08-08T10:51:49;6.83;;;5.03;;
11453;SDS011;5783;55.174;61.310;2023-08-08T10:57:15;9.53;;;5.53;;
11453;SDS011;5783;55.174;61.310;2023-08-08T10:59:42;7.27;;;5.10;;
11453;SDS011;5783;55.174;61.310;2023-08-08T11:02:11;6.53;;;5.20;;
11453;SDS011;5783;55.174;61.310;2023-08-08T11:04:42;7.07;;;5.00;;
11453;SDS011;5783;55.174;61.310;2023-08-08T11:07:11;6.33;;;4.80;;
11453;SDS011;5783;55.174;61.310;2023-08-08T11:09:42;7.87;;;4.57;;
11453;SDS011;5783;55.174;61.310;2023-08-08T11:15:00;5.97;;;4.20;;
11453;SDS011;5783;55.174;61.310;2023-08-08T11:17:32;5.77;;;4.20;;
11453;SDS011;5783;55.174;61.310;2023-08-08T11:20:01;9.00;;;4.30;;
11453;SDS011;5783;55.174;61.310;2023-08-08T11:22:32;6.43;;;4.33;;
11453;SDS011;5783;55.174;61.310;2023-08-08T11:25:01;5.67;;;4.47;;
11453;SDS011;5783;55.174;61.310;2023-08-08T11:27:33;5.10;;;4.60;;
11453;SDS011;5783;55.174;61.310;2023-08-08T11:30:03;6.57;;;5.00;;
11453;SDS011;5783;55.174;61.310;2023-08-08T11:32:33;6.27;;;5.17;;
11453;SDS011;5783;55.174;61.310;2023-08-08T11:35:03;8.17;;;5.43;;
11453;SDS011;5783;55.174;61.310;2023-08-08T11:37:33;6.10;;;5.00;;
11453;SDS011;5783;55.174;61.310;2023-08-08T11:40:04;8.13;;;5.00;;
11453;SDS011;5783;55.174;61.310;2023-08-08T11:42:36;9.10;;;5.90;;
11453;SDS011;5783;55.174;61.310;2023-08-08T11:47:39;7.77;;;5.70;;
11453;SDS011;5783;55.174;61.310;2023-08-08T11:50:09;6.47;;;5.10;;
11453;SDS011;5783;55.174;61.310;2023-08-08T11:52:40;5.50;;;4.90;;
11453;SDS011;5783;55.174;61.310;2023-08-08T11:55:10;7.00;;;4.80;;
11453;SDS011;5783;55.174;61.310;2023-08-08T11:57:41;5.87;;;4.93;;
11453;SDS011;5783;55.174;61.310;2023-08-08T12:00:10;6.27;;;4.67;;
11453;SDS011;5783;55.174;61.310;2023-08-08T12:02:41;6.90;;;5.03;;
11453;SDS011;5783;55.174;61.310;2023-08-08T12:05:12;7.73;;;5.07;;
11453;SDS011;5783;55.174;61.310;2023-08-08T12:07:43;7.80;;;5.30;;
11453;SDS011;5783;55.174;61.310;2023-08-08T12:10:14;8.27;;;5.83;;
11453;SDS011;5783;55.174;61.310;2023-08-08T12:12:47;7.47;;;5.00;;
11453;SDS011;5783;55.174;61.310;2023-08-08T12:15:19;6.67;;;5.07;;
11453;SDS011;5783;55.174;61.310;2023-08-08T12:17:48;5.43;;;4.60;;
11453;SDS011;5783;55.174;61.310;2023-08-08T12:20:18;6.37;;;4.90;;
11453;SDS011;5783;55.174;61.310;2023-08-08T12:22:47;7.13;;;4.93;;
11453;SDS011;5783;55.174;61.310;2023-08-08T12:25:17;6.43;;;4.60;;
11453;SDS011;5783;55.174;61.310;2023-08-08T12:27:46;5.17;;;4.17;;
11453;SDS011;5783;55.174;61.310;2023-08-08T12:30:15;6.90;;;4.87;;
11453;SDS011;5783;55.174;61.310;2023-08-08T12:32:44;5.87;;;4.70;;
11453;SDS011;5783;55.174;61.310;2023-08-08T12:35:13;5.83;;;4.30;;
11453;SDS011;5783;55.174;61.310;2023-08-08T12:37:43;5.53;;;4.60;;
11453;SDS011;5783;55.174;61.310;2023-08-08T12:40:12;6.33;;;4.60;;
11453;SDS011;5783;55.174;61.310;2023-08-08T12:42:41;5.13;;;4.63;;
11453;SDS011;5783;55.174;61.310;2023-08-08T12:45:10;7.87;;;5.10;;
11453;SDS011;5783;55.174;61.310;2023-08-08T12:47:40;6.03;;;4.60;;
11453;SDS011;5783;55.174;61.310;2023-08-08T12:50:09;7.00;;;4.30;;
11453;SDS011;5783;55.174;61.310;2023-08-08T12:52:38;6.87;;;4.50;;
11453;SDS011;5783;55.174;61.310;2023-08-08T12:55:07;6.07;;;4.70;;
11453;SDS011;5783;55.174;61.310;2023-08-08T12:57:37;5.33;;;4.67;;
11453;SDS011;5783;55.174;61.310;2023-08-08T13:00:07;5.67;;;4.60;;
11453;SDS011;5783;55.174;61.310;2023-08-08T13:02:37;6.47;;;4.67;;
11453;SDS011;5783;55.174;61.310;2023-08-08T13:05:06;6.63;;;4.50;;
11453;SDS011;5783;55.174;61.310;2023-08-08T13:07:35;5.77;;;4.30;;
11453;SDS011;5783;55.174;61.310;2023-08-08T13:10:05;7.43;;;4.40;;
11453;SDS011;5783;55.174;61.310;2023-08-08T13:12:35;8.00;;;4.50;;
11453;SDS011;5783;55.174;61.310;2023-08-08T13:15:05;5.90;;;4.70;;
11453;SDS011;5783;55.174;61.310;2023-08-08T13:17:34;6.20;;;4.73;;
11453;SDS011;5783;55.174;61.310;2023-08-08T13:20:04;6.47;;;4.60;;
11453;SDS011;5783;55.174;61.310;2023-08-08T13:22:33;6.07;;;5.43;;
11453;SDS011;5783;55.174;61.310;2023-08-08T13:25:03;6.20;;;5.07;;
11453;SDS011;5783;55.174;61.310;2023-08-08T13:27:33;6.53;;;4.47;;
11453;SDS011;5783;55.174;61.310;2023-08-08T13:30:03;8.93;;;5.30;;
11453;SDS011;5783;55.174;61.310;2023-08-08T13:32:33;5.77;;;5.10;;
11453;SDS011;5783;55.174;61.310;2023-08-08T13:35:02;6.43;;;4.90;;
11453;SDS011;5783;55.174;61.310;2023-08-08T13:37:32;7.60;;;5.37;;
11453;SDS011;5783;55.174;61.310;2023-08-08T13:40:01;6.27;;;4.80;;
11453;SDS011;5783;55.174;61.310;2023-08-08T13:42:31;6.40;;;4.63;;
11453;SDS011;5783;55.174;61.310;2023-08-08T13:45:00;6.23;;;4.50;;
11453;SDS011;5783;55.174;61.310;2023-08-08T13:47:31;9.30;;;4.73;;
11453;SDS011;5783;55.174;61.310;2023-08-08T13:50:00;4.60;;;4.10;;
11453;SDS011;5783;55.174;61.310;2023-08-08T13:52:30;7.10;;;4.50;;
11453;SDS011;5783;55.174;61.310;2023-08-08T13:55:00;9.07;;;4.50;;
11453;SDS011;5783;55.174;61.310;2023-08-08T13:57:31;6.47;;;5.23;;
11453;SDS011;5783;55.174;61.310;2023-08-08T14:00:03;6.33;;;5.13;;
11453;SDS011;5783;55.174;61.310;2023-08-08T14:02:35;7.30;;;4.73;;
11453;SDS011;5783;55.174;61.310;2023-08-08T14:05:04;7.47;;;4.70;;
11453;SDS011;5783;55.174;61.310;2023-08-08T14:07:34;7.00;;;4.80;;
11453;SDS011;5783;55.174;61.310;2023-08-08T14:10:04;5.10;;;4.60;;
11453;SDS011;5783;55.174;61.310;2023-08-08T14:12:35;6.47;;;4.87;;
11453;SDS011;5783;55.174;61.310;2023-08-08T14:15:04;5.37;;;4.37;;
11453;SDS011;5783;55.174;61.310;2023-08-08T14:17:35;7.03;;;4.33;;
11453;SDS011;5783;55.174;61.310;2023-08-08T14:20:04;5.87;;;4.40;;
11453;SDS011;5783;55.174;61.310;2023-08-08T14:22:34;5.60;;;4.77;;
11453;SDS011;5783;55.174;61.310;2023-08-08T14:25:03;6.57;;;4.70;;
11453;SDS011;5783;55.174;61.310;2023-08-08T14:27:33;9.57;;;5.10;;
11453;SDS011;5783;55.174;61.310;2023-08-08T14:30:02;6.90;;;5.20;;
11453;SDS011;5783;55.174;61.310;2023-08-08T14:32:33;6.97;;;4.50;;
11453;SDS011;5783;55.174;61.310;2023-08-08T14:35:02;6.67;;;5.07;;
11453;SDS011;5783;55.174;61.310;2023-08-08T14:37:32;7.20;;;5.00;;
11453;SDS011;5783;55.174;61.310;2023-08-08T14:40:01;6.70;;;5.40;;
11453;SDS011;5783;55.174;61.310;2023-08-08T14:42:31;9.90;;;6.30;;
11453;SDS011;5783;55.174;61.310;2023-08-08T14:45:00;12.87;;;7.80;;
11453;SDS011;5783;55.174;61.310;2023-08-08T14:47:31;15.03;;;9.30;;
11453;SDS011;5783;55.174;61.310;2023-08-08T14:50:00;20.73;;;12.37;;
11453;SDS011;5783;55.174;61.310;2023-08-08T14:52:31;23.43;;;13.40;;
11453;SDS011;5783;55.174;61.310;2023-08-08T14:55:00;23.43;;;14.63;;
11453;SDS011;5783;55.174;61.310;2023-08-08T14:57:30;31.10;;;18.33;;
11453;SDS011;5783;55.174;61.310;2023-08-08T14:59:59;35.80;;;20.37;;
11453;SDS011;5783;55.174;61.310;2023-08-08T15:02:32;28.97;;;18.33;;
11453;SDS011;5783;55.174;61.310;2023-08-08T15:05:01;32.67;;;17.73;;
11453;SDS011;5783;55.174;61.310;2023-08-08T15:07:31;29.03;;;18.23;;
11453;SDS011;5783;55.174;61.310;2023-08-08T15:10:00;29.27;;;19.17;;
11453;SDS011;5783;55.174;61.310;2023-08-08T15:12:31;28.73;;;17.90;;
11453;SDS011;5783;55.174;61.310;2023-08-08T15:15:01;28.67;;;17.23;;
11453;SDS011;5783;55.174;61.310;2023-08-08T15:17:32;27.03;;;16.17;;
11453;SDS011;5783;55.174;61.310;2023-08-08T15:20:01;24.13;;;16.07;;
11453;SDS011;5783;55.174;61.310;2023-08-08T15:22:30;23.20;;;15.40;;
11453;SDS011;5783;55.174;61.310;2023-08-08T15:24:59;25.07;;;15.03;;
11453;SDS011;5783;55.174;61.310;2023-08-08T15:27:30;24.63;;;14.80;;
11453;SDS011;5783;55.174;61.310;2023-08-08T15:29:59;23.47;;;14.87;;
11453;SDS011;5783;55.174;61.310;2023-08-08T15:32:30;22.40;;;14.10;;
11453;SDS011;5783;55.174;61.310;2023-08-08T15:35:00;20.17;;;14.63;;